Time;durP1;ratioP1;P1;durP2;ratioP2;P2;SDS_P1;SDS_P2;PMS_P1;PMS_P2;Temp;Humidity;BMP_temperature;BMP_pressure;BME280_temperature;BME280_humidity;BME280_pressure;Samples;Min_cycle;Max_cycle;Signal;HPM_P1;HPM_P2
2023/09/02 00:01:16;;;;;;;18.02;12.98;;;;;;;18.83;85.03;101546.41;4988381;28;20030;-69
2023/09/02 00:03:42;;;;;;;77.15;11.95;;;;;;;18.81;85.37;101541.16;4991230;28;20061;-68
2023/09/02 00:06:07;;;;;;;24.48;11.93;;;;;;;18.72;85.34;101547.09;4999024;28;20030;-69
2023/09/02 00:08:32;;;;;;;14.57;12.40;;;;;;;18.79;85.90;101547.56;4994144;28;20030;-68
2023/09/02 00:10:58;;;;;;;12.23;10.98;;;;;;;18.81;84.93;101540.31;4993514;28;20034;-68
2023/09/02 00:13:23;;;;;;;16.20;12.35;;;;;;;18.84;84.87;101535.63;4993947;28;20537;-68
2023/09/02 00:15:48;;;;;;;13.05;10.75;;;;;;;18.89;84.56;101537.16;4990509;28;20034;-69
2023/09/02 00:18:13;;;;;;;14.27;11.90;;;;;;;18.95;84.65;101540.28;4993688;28;20034;-68
2023/09/02 00:20:39;;;;;;;14.75;13.00;;;;;;;18.93;85.05;101538.66;4993474;28;20458;-68
2023/09/02 00:23:04;;;;;;;13.60;12.02;;;;;;;19.00;84.52;101540.84;4996567;28;20049;-68
2023/09/02 00:25:29;;;;;;;15.45;11.70;;;;;;;19.10;84.21;101536.63;4996063;28;20038;-69
2023/09/02 00:27:55;;;;;;;13.80;11.20;;;;;;;19.18;83.26;101537.94;4990437;28;20036;-68
2023/09/02 00:30:20;;;;;;;13.50;11.02;;;;;;;19.11;83.32;101549.06;4999518;28;20062;-69
2023/09/02 00:32:46;;;;;;;13.98;10.90;;;;;;;19.09;82.48;101540.25;4992023;28;20183;-69
2023/09/02 00:35:11;;;;;;;11.73;10.52;;;;;;;19.02;82.26;101543.41;4997718;28;20029;-68
2023/09/02 00:37:36;;;;;;;13.55;11.90;;;;;;;19.00;83.09;101548.88;4988795;28;20112;-69
2023/09/02 00:40:02;;;;;;;14.75;11.32;;;;;;;19.01;83.26;101539.88;4993842;28;20034;-69
2023/09/02 00:42:30;;;;;;;13.95;11.77;;;;;;;18.98;83.99;101545.47;4993290;28;20030;-69
2023/09/02 00:44:55;;;;;;;12.98;11.68;;;;;;;18.91;84.35;101553.97;4994967;28;20025;-69
2023/09/02 00:47:21;;;;;;;15.43;12.88;;;;;;;19.13;83.57;101546.28;4994561;28;20029;-69
2023/09/02 00:49:47;;;;;;;15.23;11.45;;;;;;;18.99;83.92;101557.03;4995225;28;20034;-69
2023/09/02 00:52:12;;;;;;;16.20;12.95;;;;;;;18.95;84.42;101556.38;4993340;28;20026;-69
2023/09/02 00:54:37;;;;;;;16.02;12.15;;;;;;;18.86;85.29;101557.81;4990318;28;20546;-69
2023/09/02 00:57:06;;;;;;;13.60;11.75;;;;;;;18.93;85.06;101547.59;4999190;28;20036;-69
2023/09/02 00:59:32;;;;;;;14.55;12.43;;;;;;;19.00;85.11;101561.44;4993437;28;20469;-69
2023/09/02 01:01:59;;;;;;;14.68;11.90;;;;;;;19.05;84.08;101549.44;5000586;28;20034;-69
2023/09/02 01:04:26;;;;;;;14.40;12.13;;;;;;;19.14;83.47;101550.69;4993181;28;20080;-69
2023/09/02 01:06:55;;;;;;;12.13;10.00;;;;;;;19.06;82.06;101551.16;4990692;28;20524;-69
2023/09/02 01:09:20;;;;;;;13.73;11.95;;;;;;;18.88;84.53;101556.84;4987171;28;20037;-68
2023/09/02 01:11:45;;;;;;;12.27;10.98;;;;;;;19.02;83.72;101551.47;4989595;28;20045;-69
2023/09/02 01:14:11;;;;;;;13.55;11.75;;;;;;;18.97;83.81;101550.91;4991894;28;20481;-69
2023/09/02 01:16:38;;;;;;;14.80;12.07;;;;;;;18.81;85.37;101553.72;4989618;28;20042;-69
2023/09/02 01:19:08;;;;;;;16.42;11.88;;;;;;;18.87;84.58;101553.31;4997007;28;20037;-69
2023/09/02 01:21:45;;;;;;;13.10;11.00;;;;;;;18.76;84.05;101567.41;4995331;28;20482;-69
2023/09/02 01:24:35;;;;;;;13.77;11.02;;;;;;;18.93;84.64;101560.09;4988313;28;20038;-69
2023/09/02 01:27:35;;;;;;;16.85;12.27;;;;;;;19.01;83.86;101565.81;4989139;28;20037;-69
2023/09/02 01:30:12;;;;;;;13.23;11.52;;;;;;;18.80;85.10;101560.03;4993085;28;20466;-68
2023/09/02 01:32:42;;;;;;;11.98;10.52;;;;;;;18.78;84.04;101565.47;4992453;28;20611;-68
2023/09/02 01:35:09;;;;;;;14.15;11.32;;;;;;;18.80;84.46;101565.38;4996377;28;20030;-69
2023/09/02 01:37:43;;;;;;;13.70;11.40;;;;;;;18.84;83.75;101562.41;4991141;28;20064;-69
2023/09/02 01:40:14;;;;;;;12.85;10.85;;;;;;;18.84;82.59;101553.53;4988519;28;20057;-68
2023/09/02 01:42:40;;;;;;;14.77;11.20;;;;;;;18.85;83.56;101558.78;4991640;28;20312;-68
2023/09/02 01:45:07;;;;;;;11.55;10.23;;;;;;;18.90;81.70;101561.16;5002164;28;20034;-69
2023/09/02 01:47:32;;;;;;;15.13;10.48;;;;;;;18.96;82.12;101560.75;4992674;28;20477;-68
2023/09/02 01:49:58;;;;;;;11.52;10.32;;;;;;;18.97;81.63;101566.97;4991322;28;20096;-69
2023/09/02 01:52:24;;;;;;;12.00;10.20;;;;;;;18.96;82.73;101573.31;4996675;28;20081;-69
2023/09/02 01:54:50;;;;;;;11.77;9.77;;;;;;;18.98;82.41;101574.06;4993059;28;20025;-69
2023/09/02 01:57:16;;;;;;;16.23;11.23;;;;;;;18.97;83.13;101575.03;4990786;28;20070;-68
2023/09/02 01:59:42;;;;;;;12.55;10.85;;;;;;;19.02;82.08;101580.94;4987961;28;20034;-68
2023/09/02 02:02:07;;;;;;;11.50;9.20;;;;;;;19.03;81.74;101566.59;4997493;28;20408;-68
2023/09/02 02:04:39;;;;;;;13.85;11.43;;;;;;;18.96;83.20;101578.66;4995419;28;20030;-68
2023/09/02 02:07:13;;;;;;;13.85;11.10;;;;;;;18.89;83.05;101574.66;4991277;28;20053;-68
2023/09/02 02:09:43;;;;;;;14.35;11.18;;;;;;;18.92;83.90;101572.63;4983367;28;20347;-69
2023/09/02 02:12:08;;;;;;;13.32;10.45;;;;;;;18.93;84.02;101579.75;4988498;28;20034;-69
2023/09/02 02:14:34;;;;;;;12.35;10.77;;;;;;;18.95;84.04;101577.81;4992592;28;20105;-69
2023/09/02 02:17:04;;;;;;;12.73;11.18;;;;;;;18.86;84.37;101576.56;4987143;28;20082;-69
2023/09/02 02:19:30;;;;;;;13.38;12.02;;;;;;;18.66;85.06;101586.78;4987965;28;20113;-69
2023/09/02 02:21:55;;;;;;;11.27;10.13;;;;;;;18.63;83.40;101587.81;4992143;28;20117;-69
2023/09/02 02:24:20;;;;;;;13.32;10.60;;;;;;;18.72;84.04;101589.09;4990717;28;20072;-69
2023/09/02 02:26:46;;;;;;;12.45;10.73;;;;;;;18.75;83.66;101589.78;4992395;28;20030;-69
2023/09/02 02:29:11;;;;;;;13.23;10.57;;;;;;;18.73;83.54;101586.31;4987734;28;20022;-69
2023/09/02 02:31:36;;;;;;;12.93;10.57;;;;;;;18.69;84.27;101582.13;4987225;28;20054;-70
2023/09/02 02:34:02;;;;;;;12.40;10.15;;;;;;;18.67;83.46;101586.69;4995721;28;20034;-69
2023/09/02 02:36:28;;;;;;;11.30;9.90;;;;;;;18.68;82.90;101587.53;4992276;28;20034;-69
2023/09/02 02:38:53;;;;;;;16.52;10.70;;;;;;;18.76;83.70;101594.19;4988343;28;20482;-69
2023/09/02 02:41:18;;;;;;;14.63;10.52;;;;;;;18.82;83.99;101593.78;4985849;28;20043;-70
2023/09/02 02:43:44;;;;;;;12.20;10.88;;;;;;;18.81;83.87;101599.25;4988230;28;20049;-69
2023/09/02 02:46:09;;;;;;;12.90;9.48;;;;;;;18.79;83.98;101602.03;4989963;28;20026;-69
2023/09/02 02:48:34;;;;;;;16.88;11.35;;;;;;;18.77;83.88;101605.75;4992679;28;20042;-69
2023/09/02 02:50:59;;;;;;;14.43;10.52;;;;;;;18.76;83.51;101606.72;4994901;28;20092;-69
2023/09/02 02:53:25;;;;;;;15.95;11.93;;;;;;;18.76;84.42;101596.88;4990914;28;20068;-69
2023/09/02 02:55:50;;;;;;;14.45;11.57;;;;;;;18.65;85.04;101599.28;4990892;28;20450;-70
2023/09/02 02:58:16;;;;;;;16.42;11.18;;;;;;;18.68;85.21;101604.47;4992770;28;20331;-69
2023/09/02 03:00:43;;;;;;;13.30;11.10;;;;;;;18.74;84.74;101603.25;4995959;28;21839;-69
2023/09/02 03:03:09;;;;;;;14.10;10.27;;;;;;;18.79;84.28;101604.72;4987319;28;20477;-69
2023/09/02 03:05:39;;;;;;;12.38;10.25;;;;;;;18.79;83.16;101599.38;4987403;28;20030;-69
2023/09/02 03:08:05;;;;;;;11.73;10.40;;;;;;;18.78;82.87;101604.78;4986147;28;20039;-70
2023/09/02 03:10:32;;;;;;;12.23;10.27;;;;;;;18.81;83.47;101591.22;4986437;28;20536;-69
2023/09/02 03:12:57;;;;;;;12.57;10.55;;;;;;;18.82;84.33;101592.94;4992507;28;20520;-69
2023/09/02 03:15:23;;;;;;;14.07;10.70;;;;;;;18.85;84.29;101590.94;4990848;28;20029;-69
2023/09/02 03:17:48;;;;;;;10.85;9.75;;;;;;;18.83;82.38;101597.31;4989878;28;20030;-69
2023/09/02 03:20:13;;;;;;;11.20;9.77;;;;;;;18.82;82.09;101606.31;4989269;28;20098;-69
2023/09/02 03:22:42;;;;;;;11.23;9.98;;;;;;;18.73;82.95;101596.19;4992173;28;20030;-69
2023/09/02 03:25:08;;;;;;;16.02;10.55;;;;;;;18.68;84.06;101598.25;4994251;28;20030;-69
2023/09/02 03:27:39;;;;;;;25.48;9.27;;;;;;;18.61;82.59;101600.47;4993729;28;20556;-69
2023/09/02 03:30:06;;;;;;;14.10;8.88;;;;;;;18.58;81.35;101601.50;4994535;28;20066;-69
2023/09/02 03:32:31;;;;;;;12.27;8.70;;;;;;;18.60;82.97;101601.41;4989853;28;20481;-69
2023/09/02 03:34:56;;;;;;;9.38;8.48;;;;;;;18.55;82.81;101603.50;4992548;28;20668;-69
2023/09/02 03:37:22;;;;;;;16.08;8.95;;;;;;;18.53;83.33;101608.09;4989256;28;20025;-69
2023/09/02 03:39:47;;;;;;;10.18;9.15;;;;;;;18.49;83.96;101607.44;4988037;28;20019;-69
2023/09/02 03:42:12;;;;;;;10.05;9.05;;;;;;;18.53;83.26;101608.97;4991817;28;20034;-69
2023/09/02 03:44:38;;;;;;;19.10;10.25;;;;;;;18.47;84.54;101608.50;4989486;28;20085;-69
2023/09/02 03:47:03;;;;;;;10.73;9.63;;;;;;;18.40;85.17;101612.47;4988531;28;20040;-69
2023/09/02 03:49:28;;;;;;;12.40;11.10;;;;;;;18.38;85.62;101617.09;4988648;28;20097;-70
2023/09/02 03:51:53;;;;;;;12.18;9.57;;;;;;;18.40;84.87;101618.69;4994280;28;20050;-69
2023/09/02 03:54:19;;;;;;;11.38;10.25;;;;;;;18.42;85.39;101626.63;4992044;28;20030;-69
2023/09/02 03:56:45;;;;;;;24.67;10.30;;;;;;;18.31;86.30;101628.13;4973745;28;20036;-69
2023/09/02 03:59:10;;;;;;;11.65;9.20;;;;;;;18.32;84.92;101616.47;4989795;28;20134;-69
2023/09/02 04:01:35;;;;;;;10.55;9.55;;;;;;;18.34;85.84;101617.25;4988287;28;20014;-69
2023/09/02 04:04:01;;;;;;;12.07;10.23;;;;;;;18.47;86.00;101630.78;4991978;28;20025;-69
2023/09/02 04:06:27;;;;;;;12.60;10.85;;;;;;;18.32;86.56;101612.94;4992775;28;20089;-69
2023/09/02 04:08:52;;;;;;;14.10;9.70;;;;;;;18.44;84.71;101622.91;4990523;28;20071;-69
2023/09/02 04:11:18;;;;;;;15.98;10.38;;;;;;;18.41;85.22;101624.91;4993802;28;20225;-69
2023/09/02 04:13:43;;;;;;;12.77;10.68;;;;;;;18.29;86.51;101622.03;4989545;28;20520;-70
2023/09/02 04:16:10;;;;;;;10.65;9.55;;;;;;;18.27;85.10;101617.69;4988436;28;20053;-69
2023/09/02 04:18:36;;;;;;;10.18;9.13;;;;;;;18.27;85.56;101623.91;4986739;28;20034;-69
2023/09/02 04:21:03;;;;;;;13.07;8.57;;;;;;;18.25;84.85;101628.50;4983693;28;20482;-69
2023/09/02 04:23:28;;;;;;;11.40;9.57;;;;;;;18.25;85.79;101620.47;4990798;28;20100;-70
2023/09/02 04:25:55;;;;;;;9.50;8.60;;;;;;;18.25;84.76;101631.19;4993693;28;20522;-70
2023/09/02 04:28:20;;;;;;;13.75;9.95;;;;;;;18.26;85.95;101629.38;4986004;28;20458;-69
2023/09/02 04:30:47;;;;;;;10.95;9.88;;;;;;;18.24;85.86;101625.94;4990409;28;20019;-69
2023/09/02 04:33:13;;;;;;;14.13;10.85;;;;;;;18.25;86.56;101628.50;4992556;28;20030;-69
2023/09/02 04:35:40;;;;;;;14.80;9.55;;;;;;;18.17;86.19;101620.06;4970390;28;20026;-69
2023/09/02 04:38:06;;;;;;;13.07;8.88;;;;;;;18.18;86.36;101624.47;4989122;28;20026;-68
2023/09/02 04:40:36;;;;;;;10.50;8.98;;;;;;;18.19;86.92;101636.91;4989080;28;20030;-68
2023/09/02 04:43:03;;;;;;;10.73;9.63;;;;;;;18.22;86.96;101634.03;4986967;28;20084;-69
2023/09/02 04:45:33;;;;;;;14.60;9.90;;;;;;;18.22;87.68;101636.72;4992525;28;20022;-68
2023/09/02 04:47:59;;;;;;;10.27;8.77;;;;;;;18.23;86.62;101635.78;4987429;28;20030;-69
2023/09/02 04:50:24;;;;;;;13.40;8.63;;;;;;;18.23;87.35;101641.13;4985033;28;20054;-69
2023/09/02 04:52:50;;;;;;;12.73;9.32;;;;;;;18.23;86.93;101642.94;4994828;28;20043;-69
2023/09/02 04:55:16;;;;;;;10.82;8.20;;;;;;;18.25;86.87;101639.22;4994575;28;20026;-69
2023/09/02 04:57:41;;;;;;;9.85;7.57;;;;;;;18.27;86.73;101642.66;4991873;28;20448;-69
2023/09/02 05:00:07;;;;;;;10.68;8.48;;;;;;;18.20;85.77;101644.00;4995611;28;20030;-69
2023/09/02 05:02:32;;;;;;;12.45;8.30;;;;;;;18.22;86.53;101649.25;4992480;28;20536;-69
2023/09/02 05:04:58;;;;;;;10.43;7.70;;;;;;;18.25;85.08;101647.25;4997983;28;21297;-69
2023/09/02 05:07:23;;;;;;;8.98;7.55;;;;;;;18.24;85.20;101650.03;4994117;28;20460;-69
2023/09/02 05:09:50;;;;;;;9.23;7.88;;;;;;;18.24;85.51;101653.56;4991813;28;20035;-69
2023/09/02 05:12:15;;;;;;;8.52;6.82;;;;;;;18.26;84.95;101657.00;4989860;28;20477;-69
2023/09/02 05:14:40;;;;;;;9.90;8.10;;;;;;;18.20;86.02;101651.16;4993037;28;20038;-69
2023/09/02 05:17:05;;;;;;;12.18;7.50;;;;;;;18.12;86.19;101654.28;4993274;28;20093;-69
2023/09/02 05:19:31;;;;;;;10.65;7.75;;;;;;;18.08;85.78;101658.09;4975994;28;20102;-69
2023/09/02 05:21:57;;;;;;;10.05;7.95;;;;;;;18.06;86.62;101657.31;4991694;28;20042;-69
2023/09/02 05:24:22;;;;;;;8.90;6.57;;;;;;;18.08;85.50;101658.09;4992909;28;20041;-69
2023/09/02 05:26:48;;;;;;;13.05;8.60;;;;;;;18.05;86.91;101663.63;4992116;28;20029;-69
2023/09/02 05:29:13;;;;;;;8.65;7.68;;;;;;;18.05;86.94;101666.31;4995537;28;20056;-69
2023/09/02 05:31:39;;;;;;;13.05;8.15;;;;;;;18.05;86.77;101667.16;4993070;28;20492;-69
2023/09/02 05:34:04;;;;;;;12.57;8.00;;;;;;;18.09;86.79;101670.50;4995577;28;20034;-69
2023/09/02 05:36:30;;;;;;;8.32;7.32;;;;;;;18.10;87.04;101686.50;4991493;28;20994;-69
2023/09/02 05:38:55;;;;;;;282.50;13.82;;;;;;;18.03;87.26;101684.25;4996946;28;20052;-69
2023/09/02 05:41:20;;;;;;;182.88;11.48;;;;;;;17.94;87.71;101682.09;4989092;28;20764;-69
2023/09/02 05:43:45;;;;;;;102.38;9.15;;;;;;;17.85;88.38;101689.69;4992411;28;20050;-69
2023/09/02 05:46:11;;;;;;;23.10;7.82;;;;;;;17.85;88.92;101695.06;4988310;28;20076;-69
2023/09/02 05:48:36;;;;;;;11.00;7.05;;;;;;;18.05;87.62;101691.25;4993276;28;20061;-68
2023/09/02 05:51:01;;;;;;;7.97;6.57;;;;;;;18.19;87.35;101687.78;4998370;28;20042;-69
2023/09/02 05:53:27;;;;;;;7.03;5.97;;;;;;;18.32;86.08;101691.44;4995957;28;20030;-69
2023/09/02 05:55:55;;;;;;;8.43;5.88;;;;;;;18.43;86.06;101695.31;4996237;28;20040;-69
2023/09/02 05:58:24;;;;;;;9.77;6.72;;;;;;;18.36;86.68;101703.69;4994212;28;20033;-68
2023/09/02 06:00:49;;;;;;;10.98;7.00;;;;;;;18.37;87.37;101699.19;4994065;28;20029;-68
2023/09/02 06:03:14;;;;;;;9.68;7.43;;;;;;;18.44;86.42;101697.88;4992299;28;20380;-69
2023/09/02 06:05:40;;;;;;;6.38;5.70;;;;;;;18.55;86.15;101698.09;4991453;28;20073;-69
2023/09/02 06:08:05;;;;;;;15.23;6.10;;;;;;;18.57;85.96;101703.38;4997246;28;20590;-69
2023/09/02 06:10:30;;;;;;;6.63;5.95;;;;;;;18.59;84.88;101702.31;4987674;28;20069;-70
2023/09/02 06:12:55;;;;;;;6.78;6.07;;;;;;;18.62;85.63;101701.28;4987435;28;20401;-69
2023/09/02 06:15:21;;;;;;;6.68;6.00;;;;;;;18.64;86.36;101712.75;4987536;28;20107;-70
2023/09/02 06:17:46;;;;;;;6.85;5.93;;;;;;;18.65;85.73;101716.28;4987145;28;20058;-70
2023/09/02 06:20:15;;;;;;;7.95;5.90;;;;;;;18.73;84.89;101708.69;4994038;28;20448;-69
2023/09/02 06:22:40;;;;;;;6.75;6.15;;;;;;;18.81;85.31;101714.47;4990251;28;20766;-69
2023/09/02 06:25:06;;;;;;;6.90;6.20;;;;;;;18.93;84.81;101721.75;4993446;28;20045;-69
2023/09/02 06:27:31;;;;;;;7.88;6.22;;;;;;;19.00;84.97;101724.91;4992844;28;20037;-70
2023/09/02 06:29:57;;;;;;;7.30;6.60;;;;;;;19.14;85.16;101727.59;4990198;28;20027;-70
2023/09/02 06:32:22;;;;;;;8.70;6.95;;;;;;;19.22;84.62;101729.81;4991400;28;20030;-70
2023/09/02 06:34:47;;;;;;;7.18;5.65;;;;;;;19.29;82.67;101737.38;4996971;28;20030;-69
2023/09/02 06:37:12;;;;;;;9.95;7.10;;;;;;;19.34;84.40;101743.28;4998063;28;20045;-69
2023/09/02 06:39:38;;;;;;;7.45;6.43;;;;;;;19.43;83.12;101749.03;4993461;28;20061;-69
2023/09/02 06:42:03;;;;;;;7.13;6.50;;;;;;;19.52;84.71;101751.16;4995740;28;20092;-69
2023/09/02 06:44:28;;;;;;;8.13;7.30;;;;;;;19.54;83.75;101754.63;4989001;28;20030;-69
2023/09/02 06:46:54;;;;;;;7.70;6.97;;;;;;;19.53;83.21;101752.88;4982787;28;20041;-69
2023/09/02 06:49:19;;;;;;;8.35;7.55;;;;;;;19.52;84.41;101757.38;4992587;28;20488;-69
2023/09/02 06:51:44;;;;;;;11.45;8.27;;;;;;;19.55;83.71;101767.06;4995955;28;20046;-69
2023/09/02 06:54:10;;;;;;;9.38;7.68;;;;;;;19.46;84.44;101773.88;4990422;28;20026;-69
2023/09/02 06:56:35;;;;;;;9.45;7.95;;;;;;;19.46;84.62;101768.50;4994903;28;20038;-69
2023/09/02 06:59:00;;;;;;;9.60;7.88;;;;;;;19.54;82.77;101786.81;4992193;28;20021;-69
2023/09/02 07:01:26;;;;;;;13.13;9.10;;;;;;;19.60;83.13;101784.63;4993234;28;20029;-69
2023/09/02 07:03:53;;;;;;;10.30;8.18;;;;;;;19.67;83.61;101793.13;4994574;28;20032;-69
2023/09/02 07:06:19;;;;;;;9.43;8.40;;;;;;;19.83;83.50;101798.41;4993286;28;20114;-69
2023/09/02 07:08:45;;;;;;;15.07;10.07;;;;;;;19.91;82.15;101805.94;4994547;28;20082;-69
2023/09/02 07:11:12;;;;;;;9.68;8.68;;;;;;;20.05;81.14;101803.22;4988050;28;20033;-69
2023/09/02 07:13:38;;;;;;;11.75;9.52;;;;;;;20.09;82.19;101816.34;4989693;28;20034;-69
2023/09/02 07:16:04;;;;;;;12.13;9.80;;;;;;;20.02;81.44;101817.72;4990872;28;20023;-69
2023/09/02 07:18:30;;;;;;;10.35;8.77;;;;;;;20.09;81.57;101819.03;4992325;28;20397;-68
2023/09/02 07:21:03;;;;;;;11.27;10.10;;;;;;;20.26;81.36;101822.47;4987911;28;20045;-69
2023/09/02 07:23:29;;;;;;;13.45;11.00;;;;;;;20.37;81.01;101823.47;4987236;28;20018;-69
2023/09/02 07:25:56;;;;;;;14.32;11.82;;;;;;;20.43;80.75;101830.28;4987168;28;20046;-69
2023/09/02 07:28:22;;;;;;;13.57;11.93;;;;;;;20.57;79.67;101827.59;4996599;28;20030;-69
2023/09/02 07:30:47;;;;;;;13.90;11.48;;;;;;;20.74;79.79;101831.81;4986434;28;20514;-69
2023/09/02 07:33:13;;;;;;;14.25;12.85;;;;;;;20.88;79.70;101825.50;4995146;28;20123;-69
2023/09/02 07:35:39;;;;;;;13.27;11.50;;;;;;;21.02;78.62;101833.50;4986718;28;20025;-69
2023/09/02 07:38:05;;;;;;;14.98;12.85;;;;;;;20.95;77.63;101821.44;4994234;28;20128;-68
2023/09/02 07:40:30;;;;;;;14.98;13.13;;;;;;;21.07;77.88;101838.56;4972633;28;20485;-68
2023/09/02 07:42:57;;;;;;;16.77;12.75;;;;;;;21.14;78.10;101840.72;4987950;28;20406;-69
2023/09/02 07:45:22;;;;;;;16.48;12.98;;;;;;;21.18;79.01;101845.91;4987374;28;20057;-68
2023/09/02 07:47:48;;;;;;;13.60;12.15;;;;;;;21.17;78.46;101853.13;4992586;28;20111;-68
2023/09/02 07:50:13;;;;;;;14.00;11.15;;;;;;;21.25;78.03;101852.56;4994686;28;20053;-68
2023/09/02 07:52:38;;;;;;;13.15;11.73;;;;;;;21.26;76.87;101855.16;4990246;28;20026;-68
2023/09/02 07:55:04;;;;;;;14.00;12.60;;;;;;;21.25;79.01;101855.25;4997439;28;20038;-69
2023/09/02 07:57:30;;;;;;;14.55;12.93;;;;;;;21.25;78.84;101860.63;4996422;28;20017;-68
2023/09/02 07:59:56;;;;;;;18.73;13.32;;;;;;;21.27;77.97;101856.91;4993060;28;20078;-68
2023/09/02 08:02:21;;;;;;;16.23;14.63;;;;;;;21.31;78.65;101854.88;4994904;28;20140;-68
2023/09/02 08:04:47;;;;;;;15.57;14.00;;;;;;;21.39;77.95;101865.97;4991918;28;20034;-69
2023/09/02 08:07:12;;;;;;;16.98;15.25;;;;;;;21.38;79.14;101851.66;4998719;28;20025;-69
2023/09/02 08:09:37;;;;;;;18.80;16.90;;;;;;;21.37;78.79;101859.84;4992123;28;20429;-70
2023/09/02 08:12:03;;;;;;;19.13;17.10;;;;;;;21.47;77.94;101854.69;4987785;28;20062;-70
2023/09/02 08:14:28;;;;;;;21.00;18.90;;;;;;;21.47;78.51;101866.28;4984769;28;20038;-70
2023/09/02 08:16:53;;;;;;;22.35;20.05;;;;;;;21.51;78.77;101869.63;4985309;28;20537;-70
2023/09/02 08:19:18;;;;;;;21.80;19.58;;;;;;;21.49;77.33;101868.88;4993077;28;20037;-69
2023/09/02 08:21:46;;;;;;;24.23;20.08;;;;;;;21.52;78.10;101868.66;4987595;28;20073;-69
2023/09/02 08:24:11;;;;;;;21.30;19.17;;;;;;;21.55;77.92;101865.78;4989142;28;20037;-69
2023/09/02 08:26:37;;;;;;;23.05;20.48;;;;;;;21.58;78.52;101860.16;4986834;28;20112;-68
2023/09/02 08:29:02;;;;;;;21.50;19.40;;;;;;;21.61;78.11;101860.81;5000780;28;20026;-69
2023/09/02 08:31:27;;;;;;;20.15;17.75;;;;;;;21.67;77.45;101862.19;4984219;28;20088;-69
2023/09/02 08:33:53;;;;;;;22.98;20.58;;;;;;;21.60;78.32;101859.09;4994112;28;20022;-69
2023/09/02 08:36:18;;;;;;;25.75;22.05;;;;;;;21.54;79.14;101869.41;4993738;28;20504;-69
2023/09/02 08:38:44;;;;;;;25.48;21.38;;;;;;;21.57;78.89;101877.28;5005280;28;20025;-69
2023/09/02 08:41:22;;;;;;;23.08;20.63;;;;;;;21.67;78.52;101881.03;4988035;28;20076;-69
2023/09/02 08:43:52;;;;;;;26.63;22.73;;;;;;;21.63;78.29;101884.91;4995468;28;20040;-68
2023/09/02 08:46:19;;;;;;;23.50;21.00;;;;;;;21.71;77.13;101895.16;4997634;28;20033;-68
2023/09/02 08:48:44;;;;;;;22.80;20.38;;;;;;;21.71;76.83;101895.16;4993319;28;20057;-69
2023/09/02 08:51:11;;;;;;;22.65;20.33;;;;;;;21.78;77.13;101894.63;4972439;28;20498;-69
2023/09/02 08:53:38;;;;;;;22.42;20.02;;;;;;;21.79;77.10;101899.03;4995716;28;20025;-69
2023/09/02 08:56:07;;;;;;;20.73;18.25;;;;;;;21.88;77.55;101887.59;4990895;28;20046;-69
2023/09/02 08:58:33;;;;;;;20.52;18.42;;;;;;;21.94;76.58;101893.53;4990996;28;20022;-68
2023/09/02 09:00:58;;;;;;;20.83;18.23;;;;;;;21.97;76.48;101898.69;4993903;28;20697;-68
2023/09/02 09:03:28;;;;;;;19.83;17.45;;;;;;;21.97;76.29;101896.88;4998805;28;20034;-68
2023/09/02 09:05:54;;;;;;;17.85;15.98;;;;;;;21.97;76.00;101902.25;4996386;28;20041;-69
2023/09/02 09:08:21;;;;;;;21.10;18.23;;;;;;;21.86;77.85;101907.53;4983155;28;20042;-68
2023/09/02 09:10:48;;;;;;;20.60;18.40;;;;;;;21.81;77.39;101905.16;4992664;28;20161;-68
2023/09/02 09:13:15;;;;;;;20.65;17.52;;;;;;;21.79;77.94;101909.78;4993050;28;20481;-69
2023/09/02 09:15:41;;;;;;;19.60;16.90;;;;;;;21.79;77.71;101914.31;4989462;28;20108;-69
2023/09/02 09:18:07;;;;;;;26.52;19.15;;;;;;;21.66;78.56;101911.63;4992303;28;20061;-69
2023/09/02 09:20:33;;;;;;;29.15;22.60;;;;;;;21.54;78.92;101905.28;4987116;28;20022;-68
2023/09/02 09:22:59;;;;;;;22.42;18.40;;;;;;;21.42;77.30;101902.56;4994543;28;20101;-68
2023/09/02 09:25:24;;;;;;;20.95;18.45;;;;;;;21.46;78.74;101909.47;4995346;28;20065;-68
2023/09/02 09:27:49;;;;;;;20.95;18.52;;;;;;;21.72;78.76;101902.25;5003106;28;20105;-68
2023/09/02 09:30:29;;;;;;;19.08;17.08;;;;;;;22.11;78.06;101912.03;4995348;28;20038;-68
2023/09/02 09:33:00;;;;;;;21.42;18.63;;;;;;;22.23;77.19;101908.47;4994709;28;20115;-68
2023/09/02 09:35:25;;;;;;;24.23;20.67;;;;;;;22.42;76.56;101919.63;4996588;28;20045;-68
2023/09/02 09:37:55;;;;;;;21.58;19.38;;;;;;;22.63;76.35;101919.03;4989878;28;20478;-68
2023/09/02 09:40:31;;;;;;;20.33;17.85;;;;;;;22.97;75.12;101930.91;4994089;28;20500;-68
2023/09/02 09:42:57;;;;;;;24.67;20.52;;;;;;;23.19;73.17;101938.22;4996510;28;20034;-68
2023/09/02 09:45:22;;;;;;;23.30;20.13;;;;;;;23.39;71.47;101942.97;4997461;28;20084;-69
2023/09/02 09:47:48;;;;;;;22.20;19.33;;;;;;;23.46;71.27;101951.47;4990614;28;20033;-68
2023/09/02 09:50:15;;;;;;;26.33;21.42;;;;;;;23.48;71.34;101962.97;4989974;28;20050;-69
2023/09/02 09:52:40;;;;;;;25.05;20.98;;;;;;;23.45;70.02;101955.09;4989085;28;20073;-68
2023/09/02 09:55:06;;;;;;;21.83;19.38;;;;;;;23.43;70.79;101951.69;4994033;28;20413;-69
2023/09/02 09:57:36;;;;;;;24.60;18.58;;;;;;;23.51;69.58;101959.19;4991694;28;20492;-68
2023/09/02 10:00:04;;;;;;;24.90;21.85;;;;;;;23.51;71.27;101945.72;4996715;28;20037;-68
2023/09/02 10:02:30;;;;;;;25.88;22.77;;;;;;;23.59;69.53;101944.09;4991692;28;20599;-68
2023/09/02 10:04:57;;;;;;;26.02;21.92;;;;;;;23.69;69.72;101944.31;5000960;28;20120;-68
2023/09/02 10:07:30;;;;;;;25.45;22.17;;;;;;;23.90;70.08;101950.72;4992873;28;20104;-69
2023/09/02 10:09:58;;;;;;;26.70;21.00;;;;;;;24.13;69.54;101954.28;5001352;28;20496;-68
2023/09/02 10:12:24;;;;;;;23.95;21.40;;;;;;;24.09;69.41;101954.66;4988160;28;20076;-68
2023/09/02 10:14:50;;;;;;;29.05;26.05;;;;;;;24.00;69.50;101952.69;5000629;28;20029;-69
2023/09/02 10:17:17;;;;;;;27.55;24.50;;;;;;;24.20;68.37;101960.03;4992100;28;20055;-69
2023/09/02 10:19:44;;;;;;;23.80;21.25;;;;;;;24.32;68.44;101961.78;4988273;28;20030;-69
2023/09/02 10:22:18;;;;;;;24.67;21.45;;;;;;;24.29;68.91;101972.81;4987304;28;20034;-69
2023/09/02 10:24:56;;;;;;;25.40;21.55;;;;;;;24.37;68.73;101974.97;5000075;28;20034;-69
2023/09/02 10:27:23;;;;;;;23.75;20.15;;;;;;;24.47;67.57;101975.94;4992669;28;20493;-69
2023/09/02 10:29:57;;;;;;;21.63;19.42;;;;;;;24.66;66.83;101981.56;4991264;28;20366;-71
2023/09/02 10:32:37;;;;;;;20.75;17.67;;;;;;;24.92;66.58;101976.72;4989601;28;20378;-69
2023/09/02 10:35:13;;;;;;;20.45;18.35;;;;;;;24.91;66.72;101977.72;4987254;28;20076;-69
2023/09/02 10:37:45;;;;;;;22.20;19.80;;;;;;;24.71;66.42;101985.72;4989288;28;20041;-69
2023/09/02 10:40:18;;;;;;;23.00;20.23;;;;;;;24.43;66.21;101980.75;4987309;28;20559;-69
2023/09/02 10:42:44;;;;;;;21.85;18.67;;;;;;;24.21;67.35;101983.41;4982484;28;20045;-69
2023/09/02 10:45:10;;;;;;;22.52;20.23;;;;;;;24.18;68.30;101980.94;4993257;28;20034;-69
2023/09/02 10:47:36;;;;;;;24.65;20.13;;;;;;;24.47;68.20;101975.94;4990768;28;20466;-69
2023/09/02 10:50:02;;;;;;;22.85;20.15;;;;;;;24.88;66.54;101988.78;4986945;28;20074;-70
2023/09/02 10:52:28;;;;;;;23.25;20.35;;;;;;;25.25;65.28;101990.28;4987052;28;20026;-70
2023/09/02 10:55:08;;;;;;;21.67;19.38;;;;;;;25.40;65.07;101995.25;4993155;28;20511;-70
2023/09/02 10:57:48;;;;;;;24.77;21.10;;;;;;;25.22;65.31;101991.41;4988974;28;20026;-70
2023/09/02 11:00:22;;;;;;;21.83;19.63;;;;;;;25.08;63.62;101995.25;4989380;28;20260;-70
2023/09/02 11:02:51;;;;;;;20.42;18.35;;;;;;;24.83;64.97;101984.72;4997611;28;20026;-71
2023/09/02 11:05:16;;;;;;;21.50;19.23;;;;;;;24.72;65.52;101988.31;4987211;28;20033;-70
2023/09/02 11:07:42;;;;;;;22.75;20.13;;;;;;;24.66;64.96;101989.66;4995437;28;20390;-70
2023/09/02 11:10:09;;;;;;;22.08;19.88;;;;;;;24.51;65.05;101988.22;4991647;28;20036;-70